sensor_id;sensor_type;location;lat;lon;timestamp;temperature;humidity
5382;DHT22;2714;49.852;6.564;2023-02-18T00:00:15;10.00;99.90
5382;DHT22;2714;49.852;6.564;2023-02-18T00:04:16;10.00;99.90
5382;DHT22;2714;49.852;6.564;2023-02-18T00:08:17;10.00;99.90
5382;DHT22;2714;49.852;6.564;2023-02-18T00:12:18;10.00;99.90
5382;DHT22;2714;49.852;6.564;2023-02-18T00:16:19;10.10;99.90
5382;DHT22;2714;49.852;6.564;2023-02-18T00:20:20;10.10;99.90
5382;DHT22;2714;49.852;6.564;2023-02-18T00:24:20;10.20;99.90
5382;DHT22;2714;49.852;6.564;2023-02-18T00:28:21;10.20;99.90
5382;DHT22;2714;49.852;6.564;2023-02-18T00:32:22;10.20;99.90
5382;DHT22;2714;49.852;6.564;2023-02-18T00:36:23;10.30;99.90
5382;DHT22;2714;49.852;6.564;2023-02-18T00:40:26;10.30;99.90
5382;DHT22;2714;49.852;6.564;2023-02-18T00:44:27;10.30;99.90
5382;DHT22;2714;49.852;6.564;2023-02-18T00:48:27;10.30;99.90
5382;DHT22;2714;49.852;6.564;2023-02-18T00:52:28;10.20;99.90
5382;DHT22;2714;49.852;6.564;2023-02-18T00:56:29;10.10;99.90
5382;DHT22;2714;49.852;6.564;2023-02-18T01:00:29;10.10;99.90
5382;DHT22;2714;49.852;6.564;2023-02-18T01:04:30;10.10;99.90
5382;DHT22;2714;49.852;6.564;2023-02-18T01:08:30;10.00;99.90
5382;DHT22;2714;49.852;6.564;2023-02-18T01:12:31;10.00;99.90
5382;DHT22;2714;49.852;6.564;2023-02-18T01:16:31;10.00;99.90
5382;DHT22;2714;49.852;6.564;2023-02-18T01:20:33;10.00;99.90
5382;DHT22;2714;49.852;6.564;2023-02-18T01:24:34;10.00;99.90
5382;DHT22;2714;49.852;6.564;2023-02-18T01:28:35;9.90;99.90
5382;DHT22;2714;49.852;6.564;2023-02-18T01:32:37;10.00;99.90
5382;DHT22;2714;49.852;6.564;2023-02-18T01:36:37;9.90;99.90
5382;DHT22;2714;49.852;6.564;2023-02-18T01:40:48;9.80;99.90
5382;DHT22;2714;49.852;6.564;2023-02-18T01:45:39;9.70;99.90
5382;DHT22;2714;49.852;6.564;2023-02-18T01:49:26;9.70;99.90
5382;DHT22;2714;49.852;6.564;2023-02-18T01:53:34;9.70;99.90
5382;DHT22;2714;49.852;6.564;2023-02-18T01:57:37;9.80;99.90
5382;DHT22;2714;49.852;6.564;2023-02-18T02:01:40;9.90;99.90
5382;DHT22;2714;49.852;6.564;2023-02-18T02:05:41;9.80;99.90
5382;DHT22;2714;49.852;6.564;2023-02-18T02:09:42;9.80;99.90
5382;DHT22;2714;49.852;6.564;2023-02-18T02:31:08;10.00;99.90
5382;DHT22;2714;49.852;6.564;2023-02-18T02:35:32;10.00;99.90
5382;DHT22;2714;49.852;6.564;2023-02-18T02:39:41;9.90;99.90
5382;DHT22;2714;49.852;6.564;2023-02-18T02:44:06;9.80;99.90
5382;DHT22;2714;49.852;6.564;2023-02-18T02:48:47;9.80;99.90
5382;DHT22;2714;49.852;6.564;2023-02-18T02:52:52;9.90;99.90
5382;DHT22;2714;49.852;6.564;2023-02-18T03:06:19;9.90;99.90
5382;DHT22;2714;49.852;6.564;2023-02-18T03:19:13;10.00;99.90
5382;DHT22;2714;49.852;6.564;2023-02-18T03:23:18;9.90;99.90
5382;DHT22;2714;49.852;6.564;2023-02-18T03:27:35;9.90;99.90
5382;DHT22;2714;49.852;6.564;2023-02-18T03:31:38;9.90;99.90
5382;DHT22;2714;49.852;6.564;2023-02-18T03:35:41;9.90;99.90
5382;DHT22;2714;49.852;6.564;2023-02-18T03:39:46;9.90;99.90
5382;DHT22;2714;49.852;6.564;2023-02-18T03:43:52;9.90;99.90
5382;DHT22;2714;49.852;6.564;2023-02-18T03:47:54;9.90;99.90
5382;DHT22;2714;49.852;6.564;2023-02-18T03:51:55;9.90;99.90
5382;DHT22;2714;49.852;6.564;2023-02-18T03:55:55;9.90;99.90
5382;DHT22;2714;49.852;6.564;2023-02-18T03:59:56;9.90;99.90
5382;DHT22;2714;49.852;6.564;2023-02-18T04:04:00;9.90;99.90
5382;DHT22;2714;49.852;6.564;2023-02-18T04:08:00;9.90;99.90
5382;DHT22;2714;49.852;6.564;2023-02-18T04:12:01;9.80;99.90
5382;DHT22;2714;49.852;6.564;2023-02-18T04:16:01;9.70;99.90
5382;DHT22;2714;49.852;6.564;2023-02-18T04:20:02;9.60;99.90
5382;DHT22;2714;49.852;6.564;2023-02-18T04:24:04;9.40;99.90
5382;DHT22;2714;49.852;6.564;2023-02-18T04:28:05;9.40;99.90
5382;DHT22;2714;49.852;6.564;2023-02-18T04:32:05;9.40;99.90
5382;DHT22;2714;49.852;6.564;2023-02-18T04:36:06;9.40;99.90
5382;DHT22;2714;49.852;6.564;2023-02-18T04:40:07;9.40;99.90
5382;DHT22;2714;49.852;6.564;2023-02-18T04:44:08;9.40;99.90
5382;DHT22;2714;49.852;6.564;2023-02-18T04:48:09;9.20;99.90
5382;DHT22;2714;49.852;6.564;2023-02-18T04:52:09;9.10;99.90
5382;DHT22;2714;49.852;6.564;2023-02-18T04:56:10;9.00;99.90
5382;DHT22;2714;49.852;6.564;2023-02-18T05:00:14;9.00;99.90
5382;DHT22;2714;49.852;6.564;2023-02-18T05:04:15;9.00;99.90
5382;DHT22;2714;49.852;6.564;2023-02-18T05:08:16;9.00;99.90
5382;DHT22;2714;49.852;6.564;2023-02-18T05:12:18;8.90;99.90
5382;DHT22;2714;49.852;6.564;2023-02-18T05:16:19;8.90;99.90
5382;DHT22;2714;49.852;6.564;2023-02-18T05:20:19;8.90;99.90
5382;DHT22;2714;49.852;6.564;2023-02-18T05:24:20;8.90;99.90
5382;DHT22;2714;49.852;6.564;2023-02-18T05:28:21;8.80;99.90
5382;DHT22;2714;49.852;6.564;2023-02-18T05:32:23;8.80;99.90
5382;DHT22;2714;49.852;6.564;2023-02-18T05:36:23;8.80;99.90
5382;DHT22;2714;49.852;6.564;2023-02-18T05:40:24;8.70;99.90
5382;DHT22;2714;49.852;6.564;2023-02-18T05:44:25;8.70;99.90
5382;DHT22;2714;49.852;6.564;2023-02-18T05:48:31;8.60;99.90
5382;DHT22;2714;49.852;6.564;2023-02-18T05:52:32;8.60;99.90
5382;DHT22;2714;49.852;6.564;2023-02-18T05:56:32;8.60;99.90
5382;DHT22;2714;49.852;6.564;2023-02-18T06:00:33;8.60;99.90
5382;DHT22;2714;49.852;6.564;2023-02-18T06:04:34;8.60;99.90
5382;DHT22;2714;49.852;6.564;2023-02-18T06:08:34;8.50;99.90
5382;DHT22;2714;49.852;6.564;2023-02-18T06:12:35;8.60;99.90
5382;DHT22;2714;49.852;6.564;2023-02-18T06:16:39;8.70;99.90
5382;DHT22;2714;49.852;6.564;2023-02-18T06:20:39;8.80;99.90
5382;DHT22;2714;49.852;6.564;2023-02-18T06:24:40;8.80;99.90
5382;DHT22;2714;49.852;6.564;2023-02-18T06:28:41;8.90;99.90
5382;DHT22;2714;49.852;6.564;2023-02-18T06:32:41;8.90;99.90
5382;DHT22;2714;49.852;6.564;2023-02-18T06:36:42;9.00;99.90
5382;DHT22;2714;49.852;6.564;2023-02-18T06:40:45;9.00;99.90
5382;DHT22;2714;49.852;6.564;2023-02-18T06:44:46;9.10;99.90
5382;DHT22;2714;49.852;6.564;2023-02-18T06:48:47;9.20;99.90
5382;DHT22;2714;49.852;6.564;2023-02-18T06:52:47;9.20;99.90
5382;DHT22;2714;49.852;6.564;2023-02-18T06:56:48;9.20;99.90
5382;DHT22;2714;49.852;6.564;2023-02-18T07:00:50;9.20;99.90
5382;DHT22;2714;49.852;6.564;2023-02-18T07:04:51;9.30;99.90
5382;DHT22;2714;49.852;6.564;2023-02-18T07:08:51;9.30;99.90
5382;DHT22;2714;49.852;6.564;2023-02-18T07:12:52;9.30;99.90
5382;DHT22;2714;49.852;6.564;2023-02-18T07:16:52;9.30;99.90
5382;DHT22;2714;49.852;6.564;2023-02-18T07:20:53;9.30;99.90
5382;DHT22;2714;49.852;6.564;2023-02-18T07:24:54;9.20;99.90
5382;DHT22;2714;49.852;6.564;2023-02-18T07:28:54;9.10;99.90
5382;DHT22;2714;49.852;6.564;2023-02-18T07:32:55;9.20;99.90
5382;DHT22;2714;49.852;6.564;2023-02-18T07:36:55;9.20;99.90
5382;DHT22;2714;49.852;6.564;2023-02-18T07:40:56;9.10;99.90
5382;DHT22;2714;49.852;6.564;2023-02-18T07:44:57;9.00;99.90
5382;DHT22;2714;49.852;6.564;2023-02-18T07:48:58;9.00;99.90
5382;DHT22;2714;49.852;6.564;2023-02-18T07:53:00;9.00;99.90
5382;DHT22;2714;49.852;6.564;2023-02-18T07:57:00;9.00;99.90
5382;DHT22;2714;49.852;6.564;2023-02-18T08:01:09;8.90;99.90
5382;DHT22;2714;49.852;6.564;2023-02-18T08:05:11;8.90;99.90
5382;DHT22;2714;49.852;6.564;2023-02-18T08:09:15;9.00;99.90
5382;DHT22;2714;49.852;6.564;2023-02-18T08:13:16;9.20;99.90
5382;DHT22;2714;49.852;6.564;2023-02-18T08:17:17;9.30;99.90
5382;DHT22;2714;49.852;6.564;2023-02-18T08:21:19;9.20;99.90
5382;DHT22;2714;49.852;6.564;2023-02-18T08:25:20;9.20;99.90
5382;DHT22;2714;49.852;6.564;2023-02-18T08:29:21;9.30;99.90
5382;DHT22;2714;49.852;6.564;2023-02-18T08:33:22;9.30;99.90
5382;DHT22;2714;49.852;6.564;2023-02-18T08:37:23;9.40;99.90
5382;DHT22;2714;49.852;6.564;2023-02-18T08:41:23;9.30;99.90
5382;DHT22;2714;49.852;6.564;2023-02-18T08:45:24;9.40;99.90
5382;DHT22;2714;49.852;6.564;2023-02-18T08:49:25;9.20;99.90
5382;DHT22;2714;49.852;6.564;2023-02-18T08:53:26;9.10;99.90
5382;DHT22;2714;49.852;6.564;2023-02-18T08:57:27;9.00;99.90
5382;DHT22;2714;49.852;6.564;2023-02-18T09:01:28;9.00;99.90
5382;DHT22;2714;49.852;6.564;2023-02-18T09:05:29;9.10;99.90
5382;DHT22;2714;49.852;6.564;2023-02-18T09:09:29;9.10;99.90
5382;DHT22;2714;49.852;6.564;2023-02-18T09:13:31;9.40;99.90
5382;DHT22;2714;49.852;6.564;2023-02-18T09:17:32;9.50;99.90
5382;DHT22;2714;49.852;6.564;2023-02-18T09:21:33;9.60;99.90
5382;DHT22;2714;49.852;6.564;2023-02-18T09:25:33;9.60;99.90
5382;DHT22;2714;49.852;6.564;2023-02-18T09:29:37;9.60;99.90
5382;DHT22;2714;49.852;6.564;2023-02-18T09:33:40;9.70;99.90
5382;DHT22;2714;49.852;6.564;2023-02-18T09:37:42;9.70;99.90
5382;DHT22;2714;49.852;6.564;2023-02-18T09:41:45;9.80;99.90
5382;DHT22;2714;49.852;6.564;2023-02-18T09:45:47;9.80;99.90
5382;DHT22;2714;49.852;6.564;2023-02-18T09:49:52;9.70;99.90
5382;DHT22;2714;49.852;6.564;2023-02-18T09:53:54;9.80;99.90
5382;DHT22;2714;49.852;6.564;2023-02-18T09:58:07;9.80;99.90
5382;DHT22;2714;49.852;6.564;2023-02-18T10:02:13;9.80;99.90
5382;DHT22;2714;49.852;6.564;2023-02-18T10:06:26;9.90;99.90
5382;DHT22;2714;49.852;6.564;2023-02-18T10:10:43;9.80;99.90
5382;DHT22;2714;49.852;6.564;2023-02-18T10:14:49;9.80;99.90
5382;DHT22;2714;49.852;6.564;2023-02-18T10:18:53;9.90;99.90
5382;DHT22;2714;49.852;6.564;2023-02-18T10:22:57;9.80;99.90
5382;DHT22;2714;49.852;6.564;2023-02-18T10:26:59;9.90;99.90
5382;DHT22;2714;49.852;6.564;2023-02-18T10:31:04;9.80;99.90
5382;DHT22;2714;49.852;6.564;2023-02-18T10:39:25;9.80;99.90
5382;DHT22;2714;49.852;6.564;2023-02-18T10:52:15;9.80;99.90
5382;DHT22;2714;49.852;6.564;2023-02-18T10:56:31;9.90;99.90
5382;DHT22;2714;49.852;6.564;2023-02-18T11:00:38;9.90;99.90
5382;DHT22;2714;49.852;6.564;2023-02-18T11:04:41;9.90;99.90
5382;DHT22;2714;49.852;6.564;2023-02-18T11:08:44;10.10;99.90
5382;DHT22;2714;49.852;6.564;2023-02-18T11:12:48;10.20;99.90
5382;DHT22;2714;49.852;6.564;2023-02-18T11:16:49;10.20;99.90
5382;DHT22;2714;49.852;6.564;2023-02-18T11:21:02;10.40;99.90
5382;DHT22;2714;49.852;6.564;2023-02-18T11:25:18;10.50;99.90
5382;DHT22;2714;49.852;6.564;2023-02-18T11:29:22;10.30;99.90
5382;DHT22;2714;49.852;6.564;2023-02-18T11:33:31;10.30;99.90
5382;DHT22;2714;49.852;6.564;2023-02-18T11:37:33;10.30;99.90
5382;DHT22;2714;49.852;6.564;2023-02-18T11:41:41;10.20;99.90
5382;DHT22;2714;49.852;6.564;2023-02-18T11:45:42;9.90;99.90
5382;DHT22;2714;49.852;6.564;2023-02-18T11:49:44;10.00;99.90
5382;DHT22;2714;49.852;6.564;2023-02-18T11:58:23;10.60;99.90
5382;DHT22;2714;49.852;6.564;2023-02-18T12:02:34;10.60;99.90
5382;DHT22;2714;49.852;6.564;2023-02-18T12:11:03;10.30;99.90
5382;DHT22;2714;49.852;6.564;2023-02-18T12:15:11;10.30;99.90
5382;DHT22;2714;49.852;6.564;2023-02-18T12:37:10;10.30;99.90
5382;DHT22;2714;49.852;6.564;2023-02-18T12:41:54;10.10;99.90
5382;DHT22;2714;49.852;6.564;2023-02-18T12:50:51;10.10;99.90
5382;DHT22;2714;49.852;6.564;2023-02-18T13:03:47;10.10;99.90
5382;DHT22;2714;49.852;6.564;2023-02-18T13:17:05;9.50;99.90
5382;DHT22;2714;49.852;6.564;2023-02-18T13:21:13;9.60;99.90
5382;DHT22;2714;49.852;6.564;2023-02-18T13:25:15;9.70;99.90
5382;DHT22;2714;49.852;6.564;2023-02-18T13:30:30;9.90;99.90
5382;DHT22;2714;49.852;6.564;2023-02-18T13:34:10;9.90;99.90
5382;DHT22;2714;49.852;6.564;2023-02-18T13:42:37;9.70;99.90
5382;DHT22;2714;49.852;6.564;2023-02-18T13:46:53;9.70;99.90
5382;DHT22;2714;49.852;6.564;2023-02-18T13:51:03;9.70;99.90
5382;DHT22;2714;49.852;6.564;2023-02-18T13:55:04;9.60;99.90
5382;DHT22;2714;49.852;6.564;2023-02-18T13:59:18;9.70;99.90
5382;DHT22;2714;49.852;6.564;2023-02-18T14:07:51;9.70;99.90
5382;DHT22;2714;49.852;6.564;2023-02-18T14:12:37;9.70;99.90
5382;DHT22;2714;49.852;6.564;2023-02-18T14:29:27;9.80;99.90
5382;DHT22;2714;49.852;6.564;2023-02-18T14:33:30;9.80;99.90
5382;DHT22;2714;49.852;6.564;2023-02-18T14:50:54;9.70;99.90
5382;DHT22;2714;49.852;6.564;2023-02-18T14:54:57;9.60;99.90
5382;DHT22;2714;49.852;6.564;2023-02-18T14:59:01;9.60;99.90
5382;DHT22;2714;49.852;6.564;2023-02-18T15:03:02;9.60;99.90
5382;DHT22;2714;49.852;6.564;2023-02-18T15:07:04;9.60;99.90
5382;DHT22;2714;49.852;6.564;2023-02-18T15:11:06;9.60;99.90
5382;DHT22;2714;49.852;6.564;2023-02-18T15:15:13;9.40;99.90
5382;DHT22;2714;49.852;6.564;2023-02-18T15:19:17;9.40;99.90
5382;DHT22;2714;49.852;6.564;2023-02-18T15:23:19;9.40;99.90
5382;DHT22;2714;49.852;6.564;2023-02-18T15:27:38;9.30;99.90
5382;DHT22;2714;49.852;6.564;2023-02-18T15:31:39;9.30;99.90
5382;DHT22;2714;49.852;6.564;2023-02-18T15:35:40;9.30;99.90
5382;DHT22;2714;49.852;6.564;2023-02-18T15:39:44;9.20;99.90
5382;DHT22;2714;49.852;6.564;2023-02-18T15:44:03;9.30;99.90
5382;DHT22;2714;49.852;6.564;2023-02-18T15:48:04;9.20;99.90
5382;DHT22;2714;49.852;6.564;2023-02-18T15:52:06;9.00;99.90
5382;DHT22;2714;49.852;6.564;2023-02-18T15:56:09;9.00;99.90
5382;DHT22;2714;49.852;6.564;2023-02-18T16:00:20;8.90;99.90
5382;DHT22;2714;49.852;6.564;2023-02-18T16:04:23;8.80;99.90
5382;DHT22;2714;49.852;6.564;2023-02-18T16:08:25;8.80;99.90
5382;DHT22;2714;49.852;6.564;2023-02-18T16:12:31;8.80;99.90
5382;DHT22;2714;49.852;6.564;2023-02-18T16:16:34;8.70;99.90
5382;DHT22;2714;49.852;6.564;2023-02-18T16:20:37;8.60;99.90
5382;DHT22;2714;49.852;6.564;2023-02-18T16:24:39;8.60;99.90
5382;DHT22;2714;49.852;6.564;2023-02-18T16:28:41;8.60;99.90
5382;DHT22;2714;49.852;6.564;2023-02-18T16:32:43;8.60;99.90
5382;DHT22;2714;49.852;6.564;2023-02-18T16:36:44;8.60;99.90
5382;DHT22;2714;49.852;6.564;2023-02-18T16:41:03;8.50;99.90
5382;DHT22;2714;49.852;6.564;2023-02-18T16:45:04;8.50;99.90
5382;DHT22;2714;49.852;6.564;2023-02-18T16:49:05;8.50;99.90
5382;DHT22;2714;49.852;6.564;2023-02-18T16:53:06;8.50;99.90
5382;DHT22;2714;49.852;6.564;2023-02-18T16:57:07;8.50;99.90
5382;DHT22;2714;49.852;6.564;2023-02-18T17:01:30;8.50;99.90
5382;DHT22;2714;49.852;6.564;2023-02-18T17:05:33;8.50;99.90
5382;DHT22;2714;49.852;6.564;2023-02-18T17:09:39;8.50;99.90
5382;DHT22;2714;49.852;6.564;2023-02-18T17:13:40;8.50;99.90
5382;DHT22;2714;49.852;6.564;2023-02-18T17:17:40;8.50;99.90
5382;DHT22;2714;49.852;6.564;2023-02-18T17:21:41;8.50;99.90
5382;DHT22;2714;49.852;6.564;2023-02-18T17:25:42;8.50;99.90
5382;DHT22;2714;49.852;6.564;2023-02-18T17:29:43;8.50;99.90
5382;DHT22;2714;49.852;6.564;2023-02-18T17:33:44;8.40;99.90
5382;DHT22;2714;49.852;6.564;2023-02-18T17:37:45;8.40;99.90
5382;DHT22;2714;49.852;6.564;2023-02-18T17:41:46;8.40;99.90
5382;DHT22;2714;49.852;6.564;2023-02-18T17:45:55;8.40;99.90
5382;DHT22;2714;49.852;6.564;2023-02-18T17:49:56;8.40;99.90
5382;DHT22;2714;49.852;6.564;2023-02-18T17:53:57;8.40;99.90
5382;DHT22;2714;49.852;6.564;2023-02-18T17:57:57;8.30;99.90
5382;DHT22;2714;49.852;6.564;2023-02-18T18:01:58;8.40;99.90
5382;DHT22;2714;49.852;6.564;2023-02-18T18:05:59;8.40;99.90
5382;DHT22;2714;49.852;6.564;2023-02-18T18:10:00;8.40;99.90
5382;DHT22;2714;49.852;6.564;2023-02-18T18:14:00;8.40;99.90
5382;DHT22;2714;49.852;6.564;2023-02-18T18:18:01;8.40;99.90
5382;DHT22;2714;49.852;6.564;2023-02-18T18:22:04;8.40;99.90
5382;DHT22;2714;49.852;6.564;2023-02-18T18:26:04;8.40;99.90
5382;DHT22;2714;49.852;6.564;2023-02-18T18:30:05;8.40;99.90
5382;DHT22;2714;49.852;6.564;2023-02-18T18:34:08;8.40;99.90
5382;DHT22;2714;49.852;6.564;2023-02-18T18:38:10;8.40;99.90
5382;DHT22;2714;49.852;6.564;2023-02-18T18:42:12;8.40;99.90
5382;DHT22;2714;49.852;6.564;2023-02-18T18:46:12;8.40;99.90
5382;DHT22;2714;49.852;6.564;2023-02-18T18:50:13;8.40;99.90
5382;DHT22;2714;49.852;6.564;2023-02-18T18:54:14;8.30;99.90
5382;DHT22;2714;49.852;6.564;2023-02-18T18:58:15;8.30;99.90
5382;DHT22;2714;49.852;6.564;2023-02-18T19:02:20;8.40;99.90
5382;DHT22;2714;49.852;6.564;2023-02-18T19:06:21;8.40;99.90
5382;DHT22;2714;49.852;6.564;2023-02-18T19:10:26;8.40;99.90
5382;DHT22;2714;49.852;6.564;2023-02-18T19:14:27;8.40;99.90
5382;DHT22;2714;49.852;6.564;2023-02-18T19:18:28;8.40;99.90
5382;DHT22;2714;49.852;6.564;2023-02-18T19:22:29;8.40;99.90
5382;DHT22;2714;49.852;6.564;2023-02-18T19:26:29;8.30;99.90
5382;DHT22;2714;49.852;6.564;2023-02-18T19:30:34;8.40;99.90
5382;DHT22;2714;49.852;6.564;2023-02-18T19:34:35;8.40;99.90
5382;DHT22;2714;49.852;6.564;2023-02-18T19:38:36;8.40;99.90
5382;DHT22;2714;49.852;6.564;2023-02-18T19:42:37;8.40;99.90
5382;DHT22;2714;49.852;6.564;2023-02-18T19:46:37;8.40;99.90
5382;DHT22;2714;49.852;6.564;2023-02-18T19:50:39;8.40;99.90
5382;DHT22;2714;49.852;6.564;2023-02-18T19:54:40;8.40;99.90
5382;DHT22;2714;49.852;6.564;2023-02-18T19:58:41;8.40;99.90
5382;DHT22;2714;49.852;6.564;2023-02-18T20:02:42;8.40;99.90
5382;DHT22;2714;49.852;6.564;2023-02-18T20:06:43;8.40;99.90
5382;DHT22;2714;49.852;6.564;2023-02-18T20:10:43;8.30;99.90
5382;DHT22;2714;49.852;6.564;2023-02-18T20:14:44;8.30;99.90
5382;DHT22;2714;49.852;6.564;2023-02-18T20:18:45;8.40;99.90
5382;DHT22;2714;49.852;6.564;2023-02-18T20:22:45;8.40;99.90
5382;DHT22;2714;49.852;6.564;2023-02-18T20:26:46;8.40;99.90
5382;DHT22;2714;49.852;6.564;2023-02-18T20:30:47;8.40;99.90
5382;DHT22;2714;49.852;6.564;2023-02-18T20:34:47;8.40;99.90
5382;DHT22;2714;49.852;6.564;2023-02-18T20:38:49;8.40;99.90
5382;DHT22;2714;49.852;6.564;2023-02-18T20:42:53;8.40;99.90
5382;DHT22;2714;49.852;6.564;2023-02-18T20:46:53;8.40;99.90
5382;DHT22;2714;49.852;6.564;2023-02-18T20:50:54;8.50;99.90
5382;DHT22;2714;49.852;6.564;2023-02-18T20:54:54;8.40;99.90
5382;DHT22;2714;49.852;6.564;2023-02-18T20:58:55;8.40;99.90
5382;DHT22;2714;49.852;6.564;2023-02-18T21:02:56;8.40;99.90
5382;DHT22;2714;49.852;6.564;2023-02-18T21:06:56;8.40;99.90
5382;DHT22;2714;49.852;6.564;2023-02-18T21:11:08;8.40;99.90
5382;DHT22;2714;49.852;6.564;2023-02-18T21:15:09;8.40;99.90
5382;DHT22;2714;49.852;6.564;2023-02-18T21:19:14;8.40;99.90
5382;DHT22;2714;49.852;6.564;2023-02-18T21:23:15;8.50;99.90
5382;DHT22;2714;49.852;6.564;2023-02-18T21:27:16;8.50;99.90
5382;DHT22;2714;49.852;6.564;2023-02-18T21:31:22;8.50;99.90
5382;DHT22;2714;49.852;6.564;2023-02-18T21:35:23;8.40;99.90
5382;DHT22;2714;49.852;6.564;2023-02-18T21:39:24;8.40;99.90
5382;DHT22;2714;49.852;6.564;2023-02-18T21:43:24;8.40;99.90
5382;DHT22;2714;49.852;6.564;2023-02-18T21:47:26;8.50;99.90
5382;DHT22;2714;49.852;6.564;2023-02-18T21:56:08;8.40;99.90
5382;DHT22;2714;49.852;6.564;2023-02-18T22:00:10;8.30;99.90
5382;DHT22;2714;49.852;6.564;2023-02-18T22:04:10;8.30;99.90
5382;DHT22;2714;49.852;6.564;2023-02-18T22:08:11;8.40;99.90
5382;DHT22;2714;49.852;6.564;2023-02-18T22:12:12;8.50;99.90
5382;DHT22;2714;49.852;6.564;2023-02-18T22:16:13;8.40;99.90
5382;DHT22;2714;49.852;6.564;2023-02-18T22:20:13;8.40;99.90
5382;DHT22;2714;49.852;6.564;2023-02-18T22:24:15;8.50;99.90
5382;DHT22;2714;49.852;6.564;2023-02-18T22:28:17;8.50;99.90
5382;DHT22;2714;49.852;6.564;2023-02-18T22:32:18;8.50;99.90
5382;DHT22;2714;49.852;6.564;2023-02-18T22:36:21;8.50;99.90
5382;DHT22;2714;49.852;6.564;2023-02-18T22:40:22;8.60;99.90
5382;DHT22;2714;49.852;6.564;2023-02-18T22:44:22;8.60;99.90
5382;DHT22;2714;49.852;6.564;2023-02-18T22:48:23;8.60;99.90
5382;DHT22;2714;49.852;6.564;2023-02-18T22:52:24;8.60;99.90
5382;DHT22;2714;49.852;6.564;2023-02-18T22:56:26;8.70;99.90
5382;DHT22;2714;49.852;6.564;2023-02-18T23:00:27;8.70;99.90
5382;DHT22;2714;49.852;6.564;2023-02-18T23:04:27;8.70;99.90
5382;DHT22;2714;49.852;6.564;2023-02-18T23:08:29;8.70;99.90
5382;DHT22;2714;49.852;6.564;2023-02-18T23:12:30;8.70;99.90
5382;DHT22;2714;49.852;6.564;2023-02-18T23:16:31;8.70;99.90
5382;DHT22;2714;49.852;6.564;2023-02-18T23:20:31;8.70;99.90
5382;DHT22;2714;49.852;6.564;2023-02-18T23:24:50;8.70;99.90
5382;DHT22;2714;49.852;6.564;2023-02-18T23:28:51;8.70;99.90
5382;DHT22;2714;49.852;6.564;2023-02-18T23:32:52;8.70;99.90
5382;DHT22;2714;49.852;6.564;2023-02-18T23:36:53;8.80;99.90
5382;DHT22;2714;49.852;6.564;2023-02-18T23:40:54;8.80;99.90
5382;DHT22;2714;49.852;6.564;2023-02-18T23:44:54;8.80;99.90
5382;DHT22;2714;49.852;6.564;2023-02-18T23:48:57;8.80;99.90
5382;DHT22;2714;49.852;6.564;2023-02-18T23:52:58;8.80;99.90
5382;DHT22;2714;49.852;6.564;2023-02-18T23:56:58;8.80;99.90
